createdAt,value
2022-08-14T00:00:32.673Z,0.00
2022-08-14T00:01:32.685Z,0.00
2022-08-14T00:02:32.701Z,0.00
2022-08-14T00:03:32.636Z,0.00
2022-08-14T00:04:35.528Z,0.00
2022-08-14T00:05:33.704Z,0.00
2022-08-14T00:06:32.598Z,0.00
2022-08-14T00:07:32.623Z,0.00
2022-08-14T00:08:44.458Z,0.00
2022-08-14T00:09:33.564Z,0.00
2022-08-14T00:10:51.492Z,0.00
2022-08-14T00:11:33.582Z,0.00
2022-08-14T00:12:34.127Z,0.00
2022-08-14T00:13:33.528Z,0.00
2022-08-14T00:14:32.510Z,0.00
2022-08-14T00:15:43.609Z,0.00
2022-08-14T00:16:41.291Z,0.00
2022-08-14T00:17:37.932Z,0.00
2022-08-14T00:19:05.651Z,0.00
2022-08-14T00:19:33.458Z,0.00
2022-08-14T00:20:41.150Z,0.00
2022-08-14T00:21:33.457Z,0.00
2022-08-14T00:22:56.225Z,0.00
2022-08-14T00:23:33.447Z,0.00
2022-08-14T00:24:32.420Z,0.00
2022-08-14T00:25:42.165Z,0.00
2022-08-14T00:26:33.467Z,0.00
2022-08-14T00:27:37.882Z,0.00
2022-08-14T00:28:34.895Z,0.00
2022-08-14T00:29:33.114Z,0.00
2022-08-14T00:30:33.339Z,0.00
2022-08-14T00:31:44.083Z,0.00
2022-08-14T00:33:01.577Z,0.00
2022-08-14T00:33:50.802Z,0.00
2022-08-14T00:34:37.062Z,0.00
2022-08-14T00:36:37.431Z,0.00
2022-08-14T00:36:39.320Z,0.00
2022-08-14T00:37:33.266Z,0.00
2022-08-14T00:38:34.896Z,0.00
2022-08-14T00:39:32.326Z,0.00
2022-08-14T00:40:35.582Z,0.00
2022-08-14T00:41:32.222Z,0.00
2022-08-14T00:42:54.919Z,0.00
2022-08-14T00:43:33.194Z,0.00
2022-08-14T00:44:33.272Z,0.00
2022-08-14T00:45:32.279Z,0.00
2022-08-14T00:46:33.437Z,0.00
2022-08-14T00:47:32.195Z,0.00
2022-08-14T00:48:34.611Z,0.00
2022-08-14T00:49:38.232Z,0.00
2022-08-14T00:50:33.143Z,0.00
2022-08-14T00:51:38.090Z,0.00
2022-08-14T00:52:33.101Z,0.00
2022-08-14T00:53:32.120Z,0.00
2022-08-14T00:54:32.116Z,0.00
2022-08-14T00:55:32.082Z,0.00
2022-08-14T00:56:32.058Z,0.00
2022-08-14T00:57:32.045Z,0.00
2022-08-14T00:58:33.137Z,0.00
2022-08-14T00:59:32.047Z,0.00
2022-08-14T01:00:37.364Z,0.00
2022-08-14T01:01:33.032Z,0.00
2022-08-14T01:02:32.374Z,0.00
2022-08-14T01:03:31.991Z,0.00
2022-08-14T01:04:51.313Z,0.00
2022-08-14T01:05:51.089Z,0.00
2022-08-14T01:06:34.427Z,0.00
2022-08-14T01:07:38.551Z,0.00
2022-08-14T01:08:51.382Z,0.00
2022-08-14T01:09:32.955Z,0.00
2022-08-14T01:10:38.293Z,0.00
2022-08-14T01:11:35.548Z,0.00
2022-08-14T01:12:31.890Z,0.00
2022-08-14T01:13:42.293Z,0.00
2022-08-14T01:14:32.878Z,0.00
2022-08-14T01:15:57.493Z,0.00
2022-08-14T01:16:32.848Z,0.00
2022-08-14T01:17:31.827Z,0.00
2022-08-14T01:18:31.815Z,0.00
2022-08-14T01:19:31.923Z,0.00
2022-08-14T01:20:31.794Z,0.00
2022-08-14T01:21:31.783Z,0.00
2022-08-14T01:22:31.836Z,0.00
2022-08-14T01:23:41.772Z,0.00
2022-08-14T01:24:34.468Z,0.00
2022-08-14T01:25:31.739Z,0.00
2022-08-14T01:26:34.536Z,0.00
2022-08-14T01:27:31.711Z,0.00
2022-08-14T01:28:46.537Z,0.00
2022-08-14T01:29:58.113Z,0.00
2022-08-14T01:30:38.278Z,0.00
2022-08-14T01:31:32.670Z,0.00
2022-08-14T01:32:31.663Z,0.00
2022-08-14T01:33:52.196Z,0.00
2022-08-14T01:35:20.774Z,0.00
2022-08-14T01:36:05.157Z,0.00
2022-08-14T01:36:32.634Z,0.00
2022-08-14T01:37:31.668Z,0.00
2022-08-14T01:38:31.602Z,0.00
2022-08-14T01:39:32.198Z,0.00
2022-08-14T01:40:32.999Z,0.00
2022-08-14T01:41:31.710Z,0.00
2022-08-14T01:42:36.203Z,0.00
2022-08-14T01:43:31.542Z,0.00
2022-08-14T01:44:33.690Z,0.00
2022-08-14T01:45:40.828Z,0.00
2022-08-14T01:46:33.531Z,0.00
2022-08-14T01:47:37.144Z,0.00
2022-08-14T01:48:32.507Z,0.00
2022-08-14T01:49:35.433Z,0.00
2022-08-14T01:50:33.704Z,0.00
2022-08-14T01:51:31.449Z,0.00
2022-08-14T01:52:57.642Z,0.00
2022-08-14T01:53:35.677Z,0.00
2022-08-14T01:54:37.968Z,0.00
2022-08-14T01:55:32.793Z,0.00
2022-08-14T01:56:31.401Z,0.00
2022-08-14T01:57:49.483Z,0.00
2022-08-14T01:58:32.382Z,0.00
2022-08-14T01:59:31.703Z,0.00
2022-08-14T02:00:36.162Z,0.00
2022-08-14T02:01:31.384Z,0.00
2022-08-14T02:02:36.731Z,0.00
2022-08-14T02:03:32.330Z,0.00
2022-08-14T02:04:40.889Z,0.00
2022-08-14T02:05:38.068Z,0.00
2022-08-14T02:06:33.756Z,0.00
2022-08-14T02:07:44.675Z,0.00
2022-08-14T02:08:35.643Z,0.00
2022-08-14T02:09:31.900Z,0.00
2022-08-14T02:10:31.247Z,0.00
2022-08-14T02:11:32.234Z,0.00
2022-08-14T02:12:31.313Z,0.00
2022-08-14T02:13:31.232Z,0.00
2022-08-14T02:14:32.110Z,0.00
2022-08-14T02:15:31.191Z,0.00
2022-08-14T02:16:31.185Z,0.00
2022-08-14T02:17:31.185Z,0.00
2022-08-14T02:18:32.577Z,0.00
2022-08-14T02:19:32.214Z,0.00
2022-08-14T02:20:31.141Z,0.00
2022-08-14T02:21:31.140Z,0.00
2022-08-14T02:22:33.208Z,0.00
2022-08-14T02:23:36.359Z,0.00
2022-08-14T02:24:39.797Z,0.00
2022-08-14T02:25:32.096Z,0.00
2022-08-14T02:26:31.127Z,0.00
2022-08-14T02:28:24.750Z,0.00
2022-08-14T02:28:58.028Z,0.00
2022-08-14T02:29:59.546Z,0.00
2022-08-14T02:30:32.030Z,0.00
2022-08-14T02:31:42.581Z,0.00
2022-08-14T02:32:37.310Z,0.00
2022-08-14T02:33:33.521Z,0.00
2022-08-14T02:34:31.011Z,0.00
2022-08-14T02:35:32.735Z,0.00
2022-08-14T02:37:06.391Z,0.00
2022-08-14T02:37:47.115Z,0.00
2022-08-14T02:38:34.998Z,0.00
2022-08-14T02:39:31.024Z,0.00
2022-08-14T02:40:32.131Z,0.00
2022-08-14T02:41:35.039Z,0.00
2022-08-14T02:42:37.525Z,0.00
2022-08-14T02:43:36.457Z,0.00
2022-08-14T02:44:31.878Z,0.00
2022-08-14T02:45:33.538Z,0.00
2022-08-14T02:46:32.276Z,0.00
2022-08-14T02:47:30.846Z,0.00
2022-08-14T02:49:03.985Z,0.00
2022-08-14T02:49:34.210Z,0.00
2022-08-14T02:50:33.727Z,0.00
2022-08-14T02:51:30.849Z,0.00
2022-08-14T02:52:57.637Z,0.00
2022-08-14T02:53:33.367Z,0.00
2022-08-14T02:54:30.834Z,0.00
2022-08-14T02:55:30.756Z,0.00
2022-08-14T02:57:39.136Z,0.00
2022-08-14T02:57:40.785Z,0.00
2022-08-14T02:58:31.726Z,0.00
2022-08-14T02:59:33.900Z,0.00
2022-08-14T03:00:30.710Z,0.00
2022-08-14T03:01:31.189Z,0.00
2022-08-14T03:02:48.769Z,0.00
2022-08-14T03:03:31.999Z,0.00
2022-08-14T03:04:31.659Z,0.00
2022-08-14T03:05:35.950Z,0.00
2022-08-14T03:06:35.029Z,0.00
2022-08-14T03:07:31.626Z,0.00
2022-08-14T03:08:30.658Z,0.00
2022-08-14T03:10:24.649Z,0.00
2022-08-14T03:10:33.494Z,0.00
2022-08-14T03:11:34.661Z,0.00
2022-08-14T03:12:31.781Z,0.00
2022-08-14T03:13:30.574Z,0.00
2022-08-14T03:14:30.586Z,0.00
2022-08-14T03:15:30.554Z,0.00
2022-08-14T03:16:30.533Z,0.00
2022-08-14T03:17:32.014Z,0.00
2022-08-14T03:18:32.812Z,0.00
2022-08-14T03:19:30.515Z,0.00
2022-08-14T03:20:30.697Z,0.00
2022-08-14T03:21:30.489Z,0.00
2022-08-14T03:22:30.515Z,0.00
2022-08-14T03:23:30.459Z,0.00
2022-08-14T03:24:30.461Z,0.00
2022-08-14T03:25:30.476Z,0.00
2022-08-14T03:26:30.889Z,0.00
2022-08-14T03:27:35.373Z,0.00
2022-08-14T03:28:33.620Z,0.00
2022-08-14T03:29:30.403Z,0.00
2022-08-14T03:30:39.981Z,0.00
2022-08-14T03:31:31.398Z,0.00
2022-08-14T03:32:32.154Z,0.00
2022-08-14T03:33:38.324Z,0.00
2022-08-14T03:34:48.042Z,0.00
2022-08-14T03:35:39.921Z,0.00
2022-08-14T03:37:37.511Z,0.00
2022-08-14T03:39:10.958Z,0.00
2022-08-14T03:39:13.317Z,0.00
2022-08-14T03:39:31.318Z,0.00
2022-08-14T03:40:30.375Z,0.00
2022-08-14T03:41:33.255Z,0.00
2022-08-14T03:42:35.853Z,0.00
2022-08-14T03:43:32.471Z,0.00
2022-08-14T03:45:25.914Z,0.00
2022-08-14T03:45:34.857Z,0.00
2022-08-14T03:46:51.951Z,0.00
2022-08-14T03:47:46.183Z,0.00
2022-08-14T03:48:31.596Z,0.00
2022-08-14T03:49:31.194Z,0.00
2022-08-14T03:50:31.324Z,0.00
2022-08-14T03:51:30.178Z,0.00
2022-08-14T03:52:38.909Z,0.00
2022-08-14T03:53:31.266Z,0.00
2022-08-14T03:54:30.144Z,0.00
2022-08-14T03:55:30.506Z,0.00
2022-08-14T03:56:30.109Z,0.00
2022-08-14T03:57:30.092Z,0.00
2022-08-14T03:58:36.673Z,0.00
2022-08-14T03:59:31.067Z,0.00
2022-08-14T04:00:40.491Z,0.00
2022-08-14T04:01:39.196Z,0.00
2022-08-14T04:02:32.621Z,0.00
2022-08-14T04:03:31.073Z,0.00
2022-08-14T04:04:30.369Z,0.00
2022-08-14T04:05:42.565Z,0.00
2022-08-14T04:06:31.618Z,5.62
2022-08-14T04:07:32.880Z,5.62
2022-08-14T04:08:31.885Z,5.62
2022-08-14T04:09:30.107Z,5.62
2022-08-14T04:10:31.968Z,5.62
2022-08-14T04:11:29.942Z,5.62
2022-08-14T04:12:29.969Z,5.62
2022-08-14T04:13:31.868Z,5.62
2022-08-14T04:14:29.908Z,5.62
2022-08-14T04:15:29.921Z,5.62
2022-08-14T04:16:31.720Z,11.25
2022-08-14T04:17:30.795Z,11.25
2022-08-14T04:18:29.881Z,11.25
2022-08-14T04:19:33.054Z,11.25
2022-08-14T04:20:30.888Z,11.25
2022-08-14T04:21:30.789Z,11.25
2022-08-14T04:22:30.815Z,11.25
2022-08-14T04:23:32.901Z,16.88
2022-08-14T04:24:29.811Z,16.88
2022-08-14T04:25:29.792Z,16.88
2022-08-14T04:26:42.336Z,16.88
2022-08-14T04:27:30.778Z,22.50
2022-08-14T04:29:07.369Z,22.50
2022-08-14T04:29:30.761Z,22.50
2022-08-14T04:30:32.756Z,28.12
2022-08-14T04:32:57.683Z,28.12
2022-08-14T04:32:59.141Z,28.12
2022-08-14T04:33:30.734Z,33.75
2022-08-14T04:34:29.792Z,33.75
2022-08-14T04:35:55.143Z,33.75
2022-08-14T04:36:30.678Z,39.38
2022-08-14T04:37:30.661Z,39.38
2022-08-14T04:38:37.013Z,39.38
2022-08-14T04:39:30.684Z,45.00
2022-08-14T04:40:29.633Z,45.00
2022-08-14T04:41:30.535Z,45.00
2022-08-14T04:42:29.603Z,50.62
2022-08-14T04:43:32.507Z,50.62
2022-08-14T04:44:36.958Z,50.62
2022-08-14T04:45:30.584Z,50.62
2022-08-14T04:46:56.315Z,56.25
2022-08-14T04:47:30.848Z,56.25
2022-08-14T04:48:39.345Z,56.25
2022-08-14T04:49:30.545Z,56.25
2022-08-14T04:50:43.739Z,56.25
2022-08-14T04:51:46.334Z,56.25
2022-08-14T04:52:30.492Z,56.25
2022-08-14T04:53:35.598Z,56.25
2022-08-14T04:54:30.479Z,61.88
2022-08-14T04:55:29.476Z,61.88
2022-08-14T04:56:34.291Z,67.50
2022-08-14T04:57:30.446Z,67.50
2022-08-14T04:58:32.293Z,73.12
2022-08-14T04:59:29.420Z,73.12
2022-08-14T05:00:29.407Z,73.12
2022-08-14T05:01:29.543Z,78.75
2022-08-14T05:02:30.436Z,78.75
2022-08-14T05:03:29.380Z,84.38
2022-08-14T05:04:29.399Z,84.38
2022-08-14T05:05:29.359Z,84.38
2022-08-14T05:06:35.081Z,90.00
2022-08-14T05:07:46.607Z,90.00
2022-08-14T05:08:32.430Z,90.00
2022-08-14T05:09:30.595Z,95.62
2022-08-14T05:10:32.344Z,101.25
2022-08-14T05:11:29.289Z,112.50
2022-08-14T05:13:12.602Z,140.62
2022-08-14T05:13:38.356Z,168.75
2022-08-14T05:14:43.000Z,185.62
2022-08-14T05:15:32.076Z,185.62
2022-08-14T05:16:29.256Z,168.75
2022-08-14T05:17:43.617Z,174.38
2022-08-14T05:19:18.890Z,180.00
2022-08-14T05:19:31.990Z,174.38
2022-08-14T05:21:55.228Z,230.62
2022-08-14T05:22:00.102Z,275.62
2022-08-14T05:22:30.174Z,270.00
2022-08-14T05:23:29.183Z,320.62
2022-08-14T05:24:29.180Z,360.00
2022-08-14T05:25:31.039Z,264.38
2022-08-14T05:26:29.184Z,275.62
2022-08-14T05:27:31.058Z,371.25
2022-08-14T05:28:29.133Z,410.62
2022-08-14T05:29:29.112Z,399.38
2022-08-14T05:30:29.083Z,427.50
2022-08-14T05:31:39.477Z,427.50
2022-08-14T05:32:30.086Z,438.75
2022-08-14T05:33:29.065Z,450.00
2022-08-14T05:34:29.055Z,478.12
2022-08-14T05:35:29.040Z,478.12
2022-08-14T05:36:29.027Z,500.62
2022-08-14T05:37:29.881Z,472.50
2022-08-14T05:38:31.114Z,483.75
2022-08-14T05:39:29.036Z,495.00
2022-08-14T05:40:28.977Z,517.50
2022-08-14T05:41:52.807Z,517.50
2022-08-14T05:42:32.132Z,534.38
2022-08-14T05:43:40.960Z,511.88
2022-08-14T05:44:30.973Z,540.00
2022-08-14T05:45:28.926Z,540.00
2022-08-14T05:46:28.925Z,528.75
2022-08-14T05:47:38.837Z,528.75
2022-08-14T05:48:33.635Z,225.00
2022-08-14T05:49:33.142Z,253.12
2022-08-14T05:50:29.883Z,421.88
2022-08-14T05:51:28.867Z,303.75
2022-08-14T05:52:39.345Z,444.38
2022-08-14T05:53:29.965Z,393.75
2022-08-14T05:54:31.371Z,360.00
2022-08-14T05:55:29.812Z,360.00
2022-08-14T05:56:29.179Z,568.12
2022-08-14T05:57:28.799Z,450.00
2022-08-14T05:58:40.998Z,517.50
2022-08-14T05:59:36.371Z,466.88
2022-08-14T06:00:31.692Z,360.00
2022-08-14T06:01:31.310Z,320.62
2022-08-14T06:02:28.741Z,421.88
2022-08-14T06:03:28.729Z,568.12
2022-08-14T06:04:28.721Z,720.00
2022-08-14T06:05:29.413Z,753.75
2022-08-14T06:06:28.694Z,787.50
2022-08-14T06:07:28.703Z,787.50
2022-08-14T06:08:36.527Z,793.12
2022-08-14T06:09:29.822Z,849.38
2022-08-14T06:10:29.742Z,832.50
2022-08-14T06:11:30.919Z,866.25
2022-08-14T06:13:00.178Z,843.75
2022-08-14T06:13:31.592Z,838.12
2022-08-14T06:14:29.604Z,849.38
2022-08-14T06:15:30.294Z,855.00
2022-08-14T06:16:28.585Z,866.25
2022-08-14T06:17:28.618Z,894.38
2022-08-14T06:18:31.982Z,894.38
2022-08-14T06:19:28.556Z,883.12
2022-08-14T06:20:28.781Z,871.88
2022-08-14T06:21:28.532Z,894.38
2022-08-14T06:22:28.530Z,961.88
2022-08-14T06:23:28.509Z,928.12
2022-08-14T06:24:30.783Z,956.25
2022-08-14T06:25:29.493Z,1006.88
2022-08-14T06:26:30.451Z,1040.62
2022-08-14T06:27:34.011Z,1108.12
2022-08-14T06:28:29.471Z,1130.62
2022-08-14T06:29:32.237Z,1035.00
2022-08-14T06:30:30.407Z,1057.50
2022-08-14T06:31:29.420Z,1091.25
2022-08-14T06:32:37.916Z,1170.00
2022-08-14T06:35:04.270Z,1102.50
2022-08-14T06:35:09.553Z,1085.62
2022-08-14T06:35:29.378Z,1299.38
2022-08-14T06:36:28.386Z,1321.88
2022-08-14T06:37:28.361Z,984.38
2022-08-14T06:38:28.351Z,1001.25
2022-08-14T06:39:37.273Z,1125.00
2022-08-14T06:40:29.458Z,1243.12
2022-08-14T06:41:35.996Z,1237.50
2022-08-14T06:42:33.041Z,1237.50
2022-08-14T06:43:31.758Z,1260.00
2022-08-14T06:44:32.367Z,1305.00
2022-08-14T06:45:28.272Z,1299.38
2022-08-14T06:46:34.135Z,1215.00
2022-08-14T06:47:29.245Z,1299.38
2022-08-14T06:48:28.272Z,1299.38
2022-08-14T06:49:28.235Z,1333.12
2022-08-14T06:50:30.049Z,1378.12
2022-08-14T06:51:38.767Z,1366.88
2022-08-14T06:52:29.457Z,1333.12
2022-08-14T06:53:28.616Z,1417.50
2022-08-14T06:54:31.119Z,1338.75
2022-08-14T06:55:29.574Z,1310.62
2022-08-14T06:56:28.180Z,1428.75
2022-08-14T06:57:28.137Z,1406.25
2022-08-14T06:58:28.894Z,1395.00
2022-08-14T06:59:28.115Z,1473.75
2022-08-14T07:00:31.123Z,1417.50
2022-08-14T07:01:28.231Z,1378.12
2022-08-14T07:02:28.695Z,1434.38
2022-08-14T07:03:28.080Z,1462.50
2022-08-14T07:04:28.077Z,1451.25
2022-08-14T07:05:28.051Z,1507.50
2022-08-14T07:06:46.907Z,1524.38
2022-08-14T07:07:29.029Z,1659.38
2022-08-14T07:08:29.493Z,1608.75
2022-08-14T07:09:28.319Z,1670.62
2022-08-14T07:10:29.098Z,1597.50
2022-08-14T07:11:27.997Z,1518.75
2022-08-14T07:12:34.900Z,1563.75
2022-08-14T07:13:30.376Z,1513.12
2022-08-14T07:14:27.957Z,1395.00
2022-08-14T07:15:28.573Z,1434.38
2022-08-14T07:16:27.955Z,1670.62
2022-08-14T07:17:28.035Z,1687.50
2022-08-14T07:18:27.953Z,1569.38
2022-08-14T07:19:27.909Z,1676.25
2022-08-14T07:20:31.327Z,1715.62
2022-08-14T07:21:27.882Z,1670.62
2022-08-14T07:22:32.940Z,1586.25
2022-08-14T07:23:31.356Z,1749.38
2022-08-14T07:24:31.395Z,1811.25
2022-08-14T07:25:32.596Z,1710.00
2022-08-14T07:26:29.511Z,1721.25
2022-08-14T07:27:27.817Z,1715.62
2022-08-14T07:28:28.799Z,1800.00
2022-08-14T07:29:29.059Z,1586.25
2022-08-14T07:30:34.244Z,1451.25
2022-08-14T07:31:28.771Z,1524.38
2022-08-14T07:32:34.015Z,1946.25
2022-08-14T07:33:30.085Z,2205.00
2022-08-14T07:34:36.438Z,1788.75
2022-08-14T07:35:30.341Z,1591.88
2022-08-14T07:36:30.637Z,1614.38
2022-08-14T07:37:27.709Z,1687.50
2022-08-14T07:38:31.997Z,1760.62
2022-08-14T07:39:28.773Z,1721.25
2022-08-14T07:40:29.919Z,1833.75
2022-08-14T07:41:33.446Z,1895.62
2022-08-14T07:42:28.648Z,1822.50
2022-08-14T07:43:27.660Z,1895.62
2022-08-14T07:44:32.753Z,2002.50
2022-08-14T07:45:28.615Z,2086.88
2022-08-14T07:46:28.643Z,1957.50
2022-08-14T07:47:27.592Z,1845.00
2022-08-14T07:48:27.584Z,1760.62
2022-08-14T07:49:27.624Z,1805.62
2022-08-14T07:50:27.561Z,1895.62
2022-08-14T07:51:36.878Z,1878.75
2022-08-14T07:52:30.898Z,1923.75
2022-08-14T07:53:27.532Z,1985.62
2022-08-14T07:54:29.984Z,2047.50
2022-08-14T07:55:29.076Z,1935.00
2022-08-14T07:56:46.725Z,1856.25
2022-08-14T07:57:28.484Z,1968.75
2022-08-14T07:58:33.830Z,1996.88
2022-08-14T07:59:41.180Z,1985.62
2022-08-14T08:00:30.973Z,1996.88
2022-08-14T08:01:27.483Z,2013.75
2022-08-14T08:02:27.470Z,1991.25
2022-08-14T08:03:27.970Z,2013.75
2022-08-14T08:04:27.478Z,2115.00
2022-08-14T08:05:27.398Z,2154.38
2022-08-14T08:06:27.655Z,2250.00
2022-08-14T08:07:29.863Z,2115.00
2022-08-14T08:08:27.714Z,2002.50
2022-08-14T08:09:32.079Z,2148.75
2022-08-14T08:10:46.743Z,2193.75
2022-08-14T08:11:28.333Z,2154.38
2022-08-14T08:12:40.386Z,2047.50
2022-08-14T08:13:29.227Z,1783.12
2022-08-14T08:14:27.331Z,1693.12
2022-08-14T08:15:27.301Z,1687.50
2022-08-14T08:16:27.334Z,1710.00
2022-08-14T08:17:27.266Z,1603.12
2022-08-14T08:18:29.237Z,1856.25
2022-08-14T08:19:27.246Z,2047.50
2022-08-14T08:20:28.276Z,2098.12
2022-08-14T08:21:27.253Z,2008.12
2022-08-14T08:22:28.294Z,1901.25
2022-08-14T08:23:31.000Z,1957.50
2022-08-14T08:24:28.213Z,2092.50
2022-08-14T08:25:27.194Z,2075.62
2022-08-14T08:26:27.170Z,1985.62
2022-08-14T08:27:27.178Z,1912.50
2022-08-14T08:28:27.203Z,1884.38
2022-08-14T08:29:29.146Z,1985.62
2022-08-14T08:30:27.191Z,2025.00
2022-08-14T08:31:33.109Z,2131.88
2022-08-14T08:32:30.022Z,2109.38
2022-08-14T08:33:27.112Z,1968.75
2022-08-14T08:34:28.115Z,2019.38
2022-08-14T08:35:46.286Z,2025.00
2022-08-14T08:36:29.841Z,2070.00
2022-08-14T08:37:30.619Z,2171.25
2022-08-14T08:39:16.525Z,2047.50
2022-08-14T08:39:42.215Z,1698.75
2022-08-14T08:40:31.047Z,1580.62
2022-08-14T08:41:27.008Z,1738.12
2022-08-14T08:42:31.641Z,1788.75
2022-08-14T08:43:27.998Z,1828.12
2022-08-14T08:44:32.992Z,1850.62
2022-08-14T08:45:27.968Z,1822.50
2022-08-14T08:46:26.978Z,1845.00
2022-08-14T08:47:26.945Z,1918.12
2022-08-14T08:48:31.839Z,2064.38
2022-08-14T08:49:27.921Z,2081.25
2022-08-14T08:50:31.874Z,2025.00
2022-08-14T08:51:30.636Z,1963.12
2022-08-14T08:52:31.171Z,1890.00
2022-08-14T08:53:26.875Z,1963.12
2022-08-14T08:54:31.030Z,2019.38
2022-08-14T08:55:26.871Z,1980.00
2022-08-14T08:56:30.759Z,1923.75
2022-08-14T08:57:27.833Z,2030.62
2022-08-14T08:58:26.923Z,2216.25
2022-08-14T08:59:30.851Z,1890.00
2022-08-14T09:00:27.034Z,1794.38
2022-08-14T09:01:26.844Z,1918.12
2022-08-14T09:02:27.683Z,2064.38
2022-08-14T09:03:27.469Z,2064.38
2022-08-14T09:04:26.772Z,1968.75
2022-08-14T09:05:26.822Z,2002.50
2022-08-14T09:07:00.184Z,2182.50
2022-08-14T09:07:27.745Z,2092.50
2022-08-14T09:08:31.194Z,2227.50
2022-08-14T09:09:33.165Z,2452.50
2022-08-14T09:10:27.726Z,2323.12
2022-08-14T09:11:27.073Z,2143.12
2022-08-14T09:12:26.871Z,2272.50
2022-08-14T09:13:26.701Z,2368.12
2022-08-14T09:14:26.675Z,2081.25
2022-08-14T09:15:26.648Z,2109.38
2022-08-14T09:16:27.663Z,2171.25
2022-08-14T09:17:26.641Z,2368.12
2022-08-14T09:18:26.629Z,2368.12
2022-08-14T09:19:26.609Z,2137.50
2022-08-14T09:20:30.618Z,2036.25
2022-08-14T09:21:31.214Z,2154.38
2022-08-14T09:22:35.427Z,2216.25
2022-08-14T09:23:34.929Z,1951.88
2022-08-14T09:24:36.302Z,1957.50
2022-08-14T09:26:00.301Z,2025.00
2022-08-14T09:26:28.600Z,2143.12
2022-08-14T09:27:26.594Z,2154.38
2022-08-14T09:28:26.508Z,2058.75
2022-08-14T09:29:28.851Z,1985.62
2022-08-14T09:30:32.405Z,2081.25
2022-08-14T09:31:27.526Z,2053.12
2022-08-14T09:32:57.811Z,1895.62
2022-08-14T09:33:27.461Z,1726.88
2022-08-14T09:34:27.260Z,1929.38
2022-08-14T09:35:27.694Z,2086.88
2022-08-14T09:36:26.422Z,2311.88
2022-08-14T09:37:26.459Z,2075.62
2022-08-14T09:38:27.351Z,2176.88
2022-08-14T09:39:26.420Z,2295.00
2022-08-14T09:40:26.376Z,2463.75
2022-08-14T09:41:26.389Z,2368.12
2022-08-14T09:42:33.325Z,2227.50
2022-08-14T09:43:27.361Z,2244.38
2022-08-14T09:44:26.375Z,2368.12
2022-08-14T09:45:26.330Z,2008.12
2022-08-14T09:46:26.342Z,2025.00
2022-08-14T09:47:26.324Z,2238.75
2022-08-14T09:48:27.768Z,2300.62
2022-08-14T09:49:26.409Z,2053.12
2022-08-14T09:50:26.869Z,2250.00
2022-08-14T09:51:26.263Z,2486.25
2022-08-14T09:52:33.740Z,2643.75
2022-08-14T09:54:12.834Z,2638.12
2022-08-14T09:54:27.225Z,2525.62
2022-08-14T09:55:26.278Z,2773.12
2022-08-14T09:56:30.408Z,3076.88
2022-08-14T09:57:27.524Z,2902.50
2022-08-14T09:58:26.186Z,2536.88
2022-08-14T09:59:26.188Z,2317.50
2022-08-14T10:00:29.341Z,2581.88
2022-08-14T10:01:26.172Z,2407.50
2022-08-14T10:02:28.422Z,2193.75
2022-08-14T10:03:26.129Z,2615.62
2022-08-14T10:04:34.573Z,2694.38
2022-08-14T10:05:27.145Z,2688.75
2022-08-14T10:06:28.240Z,2908.12
2022-08-14T10:07:26.086Z,2801.25
2022-08-14T10:08:26.912Z,2587.50
2022-08-14T10:09:26.095Z,2508.75
2022-08-14T10:10:27.049Z,2424.38
2022-08-14T10:11:35.140Z,2643.75
2022-08-14T10:12:28.982Z,2660.62
2022-08-14T10:13:26.018Z,2874.38
2022-08-14T10:14:34.808Z,2660.62
2022-08-14T10:15:27.848Z,2604.38
2022-08-14T10:16:33.108Z,2446.88
2022-08-14T10:17:27.652Z,2565.00
2022-08-14T10:18:26.961Z,2565.00
2022-08-14T10:19:25.951Z,2345.62
2022-08-14T10:20:40.622Z,2379.38
2022-08-14T10:21:26.928Z,2278.12
2022-08-14T10:23:15.142Z,2289.38
2022-08-14T10:23:27.137Z,2019.38
2022-08-14T10:24:36.412Z,1513.12
2022-08-14T10:25:27.033Z,1513.12
2022-08-14T10:26:28.419Z,1721.25
2022-08-14T10:27:26.570Z,2064.38
2022-08-14T10:29:03.955Z,2013.75
2022-08-14T10:29:26.850Z,1591.88
2022-08-14T10:30:26.323Z,1783.12
2022-08-14T10:31:26.969Z,1468.12
2022-08-14T10:32:29.147Z,1321.88
2022-08-14T10:33:26.812Z,1378.12
2022-08-14T10:34:33.318Z,1946.25
2022-08-14T10:35:31.822Z,1743.75
2022-08-14T10:36:37.110Z,1957.50
2022-08-14T10:37:27.903Z,1614.38
2022-08-14T10:38:25.785Z,2075.62
2022-08-14T10:39:25.846Z,1929.38
2022-08-14T10:40:38.803Z,1760.62
2022-08-14T10:41:31.815Z,1175.62
2022-08-14T10:42:26.704Z,1749.38
2022-08-14T10:43:25.940Z,2041.88
2022-08-14T10:44:29.732Z,2328.75
2022-08-14T10:45:25.812Z,2508.75
2022-08-14T10:47:36.563Z,2086.88
2022-08-14T10:47:40.111Z,1957.50
2022-08-14T10:48:38.386Z,1597.50
2022-08-14T10:49:26.643Z,1642.50
2022-08-14T10:50:25.621Z,1507.50
2022-08-14T10:51:25.630Z,1726.88
2022-08-14T10:52:25.639Z,2266.88
2022-08-14T10:53:25.593Z,2615.62
2022-08-14T10:54:37.237Z,2677.50
2022-08-14T10:55:26.581Z,2610.00
2022-08-14T10:56:33.975Z,2266.88
2022-08-14T10:57:26.548Z,2053.12
2022-08-14T10:58:25.582Z,2250.00
2022-08-14T10:59:31.050Z,2188.12
2022-08-14T11:00:30.288Z,1878.75
2022-08-14T11:01:26.505Z,1828.12
2022-08-14T11:02:44.993Z,1873.12
2022-08-14T11:03:35.760Z,2115.00
2022-08-14T11:04:27.810Z,1996.88
2022-08-14T11:05:25.478Z,1923.75
2022-08-14T11:06:25.565Z,1951.88
2022-08-14T11:07:25.442Z,1946.25
2022-08-14T11:08:25.429Z,2137.50
2022-08-14T11:09:26.454Z,2289.38
2022-08-14T11:10:26.444Z,2064.38
2022-08-14T11:11:25.410Z,1867.50
2022-08-14T11:12:34.730Z,1636.88
2022-08-14T11:13:26.380Z,1800.00
2022-08-14T11:14:26.503Z,1710.00
2022-08-14T11:15:25.362Z,1535.62
2022-08-14T11:16:25.376Z,1513.12
2022-08-14T11:17:25.353Z,1704.38
2022-08-14T11:18:30.171Z,1636.88
2022-08-14T11:19:26.326Z,1575.00
2022-08-14T11:20:25.304Z,1395.00
2022-08-14T11:21:25.295Z,1305.00
2022-08-14T11:22:56.483Z,1681.88
2022-08-14T11:23:26.378Z,1530.00
2022-08-14T11:24:50.540Z,1552.50
2022-08-14T11:25:36.902Z,1378.12
2022-08-14T11:26:26.242Z,1423.12
2022-08-14T11:27:33.515Z,1440.00
2022-08-14T11:28:46.881Z,1468.12
2022-08-14T11:29:26.921Z,1535.62
2022-08-14T11:30:51.588Z,1372.50
2022-08-14T11:31:26.186Z,1603.12
2022-08-14T11:32:26.174Z,1665.00
2022-08-14T11:33:25.170Z,1845.00
2022-08-14T11:34:29.828Z,1755.00
2022-08-14T11:35:26.150Z,1518.75
2022-08-14T11:36:57.163Z,1603.12
2022-08-14T11:37:39.368Z,1693.12
2022-08-14T11:38:26.111Z,1530.00
2022-08-14T11:39:33.793Z,1805.62
2022-08-14T11:40:29.251Z,1783.12
2022-08-14T11:41:25.087Z,1833.75
2022-08-14T11:42:58.562Z,1726.88
2022-08-14T11:43:29.563Z,1771.88
2022-08-14T11:44:45.794Z,1788.75
2022-08-14T11:45:26.048Z,1704.38
2022-08-14T11:46:29.850Z,1788.75
2022-08-14T11:47:26.027Z,1687.50
2022-08-14T11:49:02.562Z,1676.25
2022-08-14T11:49:26.006Z,1625.62
2022-08-14T11:50:36.276Z,1563.75
2022-08-14T11:51:26.003Z,1569.38
2022-08-14T11:52:24.978Z,1687.50
2022-08-14T11:53:24.986Z,1760.62
2022-08-14T11:54:34.372Z,1681.88
2022-08-14T11:55:26.347Z,1552.50
2022-08-14T11:56:25.737Z,1518.75
2022-08-14T11:57:24.913Z,1440.00
2022-08-14T11:58:24.901Z,1321.88
2022-08-14T11:59:26.406Z,1271.25
2022-08-14T12:00:31.859Z,1215.00
2022-08-14T12:01:25.869Z,1147.50
2022-08-14T12:02:39.134Z,1147.50
2022-08-14T12:03:37.325Z,1147.50
2022-08-14T12:04:33.277Z,1181.25
2022-08-14T12:05:25.823Z,1040.62
2022-08-14T12:06:28.588Z,894.38
2022-08-14T12:07:25.804Z,905.62
2022-08-14T12:08:30.214Z,911.25
2022-08-14T12:09:25.783Z,855.00
2022-08-14T12:10:26.056Z,849.38
2022-08-14T12:11:24.787Z,832.50
2022-08-14T12:12:35.080Z,770.62
2022-08-14T12:13:27.320Z,736.88
2022-08-14T12:14:29.881Z,821.25
2022-08-14T12:15:25.730Z,821.25
2022-08-14T12:16:24.710Z,781.88
2022-08-14T12:17:24.708Z,765.00
2022-08-14T12:18:24.816Z,736.88
2022-08-14T12:19:24.689Z,742.50
2022-08-14T12:20:30.149Z,731.25
2022-08-14T12:21:25.757Z,731.25
2022-08-14T12:22:30.347Z,781.88
2022-08-14T12:23:24.707Z,877.50
2022-08-14T12:24:36.283Z,888.75
2022-08-14T12:25:25.616Z,1001.25
2022-08-14T12:26:39.025Z,1018.12
2022-08-14T12:27:25.601Z,1299.38
2022-08-14T12:28:27.216Z,1366.88
2022-08-14T12:29:25.594Z,1428.75
2022-08-14T12:30:24.594Z,1417.50
2022-08-14T12:31:24.556Z,1749.38
2022-08-14T12:32:25.557Z,1873.12
2022-08-14T12:33:25.331Z,1884.38
2022-08-14T12:34:25.368Z,1996.88
2022-08-14T12:35:24.531Z,2126.25